Time;durP1;ratioP1;P1;durP2;ratioP2;P2;SDS_P1;SDS_P2;PMS_P1;PMS_P2;Temp;Humidity;BMP_temperature;BMP_pressure;BME280_temperature;BME280_humidity;BME280_pressure;Samples;Min_cycle;Max_cycle;Signal;HPM_P1;HPM_P2
2024/01/14 00:00:52;;;;;;;30.70;8.57;;;-1.30;98.00;;;;;;5032632;28;20528;-67
2024/01/14 00:03:19;;;;;;;29.37;8.20;;;-1.30;98.00;;;;;;5050974;28;20457;-68
2024/01/14 00:05:46;;;;;;;19.10;7.13;;;-1.10;98.00;;;;;;5051124;28;20456;-67
2024/01/14 00:08:15;;;;;;;28.20;7.97;;;-1.10;98.00;;;;;;5051174;28;20447;-68
2024/01/14 00:10:43;;;;;;;22.87;7.93;;;-1.20;98.00;;;;;;5051209;28;20206;-68
2024/01/14 00:13:10;;;;;;;22.87;7.47;;;-1.20;98.00;;;;;;5051336;28;20529;-67
2024/01/14 00:15:37;;;;;;;20.13;7.63;;;-1.30;98.00;;;;;;5051011;28;20451;-67
2024/01/14 00:18:05;;;;;;;26.43;8.53;;;-1.20;98.00;;;;;;5051033;28;20210;-67
2024/01/14 00:20:32;;;;;;;18.50;6.80;;;-1.20;98.00;;;;;;5054552;28;20486;-67
2024/01/14 00:22:59;;;;;;;23.03;7.70;;;-1.30;98.00;;;;;;5054034;28;20560;-67
2024/01/14 00:25:29;;;;;;;22.47;8.10;;;-1.30;98.00;;;;;;5053901;28;20451;-66
2024/01/14 00:27:56;;;;;;;30.05;8.23;;;-1.20;98.00;;;;;;5054287;28;20487;-67
2024/01/14 00:30:23;;;;;;;27.60;7.80;;;-1.30;98.00;;;;;;5054662;28;20225;-67
2024/01/14 00:32:50;;;;;;;29.40;9.20;;;-1.30;98.00;;;;;;5036896;28;20451;-67
2024/01/14 00:35:18;;;;;;;19.07;6.37;;;-1.20;98.00;;;;;;5054229;28;20777;-68
2024/01/14 00:37:45;;;;;;;28.13;7.80;;;-1.30;98.00;;;;;;5054512;28;20469;-68
2024/01/14 00:40:13;;;;;;;28.15;8.35;;;-1.40;98.00;;;;;;5053943;28;20983;-68
2024/01/14 00:42:41;;;;;;;25.80;8.63;;;-1.40;98.00;;;;;;5054222;28;20191;-67
2024/01/14 00:45:09;;;;;;;28.98;8.43;;;-1.50;98.00;;;;;;5053959;28;20450;-67
2024/01/14 00:47:36;;;;;;;23.20;7.55;;;-1.50;98.00;;;;;;5054632;28;20616;-67
2024/01/14 00:50:05;;;;;;;27.50;7.75;;;-1.60;98.00;;;;;;5054337;28;20205;-67
2024/01/14 00:52:33;;;;;;;21.83;6.63;;;-1.60;98.00;;;;;;5053099;28;20211;-67
2024/01/14 00:55:00;;;;;;;17.92;7.13;;;-1.60;98.00;;;;;;5054021;28;20240;-68
2024/01/14 00:57:27;;;;;;;18.43;7.23;;;-1.60;98.00;;;;;;5054375;28;20261;-67
2024/01/14 00:59:57;;;;;;;19.30;6.80;;;-1.60;98.00;;;;;;5054371;28;20459;-67
2024/01/14 01:02:24;;;;;;;31.10;9.63;;;-1.50;98.00;;;;;;5053819;28;20465;-66
2024/01/14 01:04:51;;;;;;;22.52;8.05;;;-1.50;98.00;;;;;;5053951;28;20460;-66
2024/01/14 01:07:18;;;;;;;30.83;8.57;;;-1.60;98.00;;;;;;5054037;28;20219;-66
2024/01/14 01:09:45;;;;;;;28.80;7.77;;;-1.40;98.00;;;;;;5053529;28;20223;-66
2024/01/14 01:12:12;;;;;;;26.23;8.03;;;-1.30;98.00;;;;;;5053856;28;20461;-66
2024/01/14 01:14:40;;;;;;;22.20;7.50;;;-1.40;98.00;;;;;;5036015;28;20457;-66
2024/01/14 01:17:09;;;;;;;23.70;7.60;;;-1.30;98.00;;;;;;5035592;28;20544;-66
2024/01/14 01:19:36;;;;;;;34.20;9.50;;;-1.10;98.00;;;;;;5053746;28;20205;-66
2024/01/14 01:22:03;;;;;;;21.48;7.90;;;-1.10;98.00;;;;;;5053664;28;20487;-66
2024/01/14 01:24:31;;;;;;;33.50;8.40;;;-1.20;98.00;;;;;;5035353;28;20216;-66
2024/01/14 01:26:58;;;;;;;28.00;8.55;;;-1.20;98.00;;;;;;5035398;28;20512;-66
2024/01/14 01:29:25;;;;;;;30.10;8.30;;;-1.10;98.00;;;;;;5034732;28;20203;-66
2024/01/14 01:31:52;;;;;;;26.88;7.97;;;-1.00;98.00;;;;;;5052946;28;20211;-66
2024/01/14 01:34:20;;;;;;;38.17;9.43;;;-1.20;98.00;;;;;;5052719;28;20607;-66
2024/01/14 01:36:47;;;;;;;25.75;8.95;;;-1.20;98.00;;;;;;5052662;28;21105;-66
2024/01/14 01:39:15;;;;;;;27.53;8.67;;;-1.20;98.00;;;;;;5052634;28;20600;-66
2024/01/14 01:41:42;;;;;;;31.60;8.52;;;-1.20;98.00;;;;;;5034892;28;20506;-66
2024/01/14 01:44:10;;;;;;;31.65;8.95;;;-1.10;98.00;;;;;;5052463;28;20212;-66
2024/01/14 01:46:38;;;;;;;24.98;7.55;;;-1.20;98.00;;;;;;5052582;28;20287;-66
2024/01/14 01:49:05;;;;;;;29.10;8.80;;;-1.10;98.00;;;;;;5052552;28;20202;-66
2024/01/14 01:51:33;;;;;;;26.67;7.70;;;-1.10;98.00;;;;;;5052453;28;20520;-66
2024/01/14 01:54:01;;;;;;;29.70;8.10;;;-1.10;98.00;;;;;;5052164;28;20470;-66
2024/01/14 01:56:28;;;;;;;31.27;9.37;;;-1.10;98.00;;;;;;5052272;28;20835;-66
2024/01/14 01:58:55;;;;;;;28.10;8.63;;;-1.10;98.00;;;;;;5052539;28;20470;-66
2024/01/14 02:01:22;;;;;;;23.87;8.40;;;-1.10;98.00;;;;;;5052455;28;20553;-66
2024/01/14 02:03:51;;;;;;;31.23;6.93;;;-1.20;98.00;;;;;;5052930;28;20454;-66
2024/01/14 02:06:22;;;;;;;26.77;8.77;;;-1.20;98.00;;;;;;5052640;28;20984;-66
2024/01/14 02:08:53;;;;;;;36.80;9.40;;;-1.10;98.00;;;;;;5035840;28;20478;-66
2024/01/14 02:11:21;;;;;;;28.55;8.48;;;-1.00;98.00;;;;;;5052809;28;20463;-66
2024/01/14 02:13:48;;;;;;;18.47;7.10;;;-1.10;98.00;;;;;;5052734;28;20201;-66
2024/01/14 02:16:16;;;;;;;35.63;9.30;;;-1.10;98.00;;;;;;5034859;28;20461;-66
2024/01/14 02:18:45;;;;;;;31.07;9.33;;;-1.20;98.00;;;;;;5052615;28;20980;-66
2024/01/14 02:21:18;;;;;;;36.70;9.23;;;-1.30;98.00;;;;;;5052388;28;20491;-66
2024/01/14 02:23:49;;;;;;;29.57;8.50;;;-1.40;98.00;;;;;;5052577;28;20460;-66
2024/01/14 02:26:18;;;;;;;23.03;8.23;;;-1.50;98.00;;;;;;5052477;28;20462;-66
2024/01/14 02:28:45;;;;;;;25.10;8.17;;;-1.40;98.00;;;;;;5052596;28;20531;-66
2024/01/14 02:31:12;;;;;;;34.80;8.80;;;-1.40;98.00;;;;;;5034734;28;20459;-66
2024/01/14 02:33:40;;;;;;;30.60;9.30;;;-1.40;98.00;;;;;;5052426;28;20453;-66
2024/01/14 02:36:07;;;;;;;27.03;9.80;;;-1.30;98.00;;;;;;5035036;28;20451;-66
2024/01/14 02:38:34;;;;;;;21.53;8.10;;;-1.30;98.00;;;;;;5034763;28;20443;-67
2024/01/14 02:41:01;;;;;;;28.60;8.77;;;-1.30;98.00;;;;;;5051503;28;20941;-66
2024/01/14 02:43:30;;;;;;;25.97;8.13;;;-1.20;98.00;;;;;;5034749;28;20466;-66
2024/01/14 02:45:57;;;;;;;28.53;9.20;;;-1.20;98.00;;;;;;5052009;28;20466;-66
2024/01/14 02:48:24;;;;;;;32.40;9.83;;;-1.30;98.00;;;;;;5034855;28;20458;-66
2024/01/14 02:50:51;;;;;;;24.40;8.27;;;-1.30;98.00;;;;;;5052274;28;20862;-66
2024/01/14 02:53:19;;;;;;;29.73;10.23;;;-1.30;98.00;;;;;;5051808;28;20498;-66
2024/01/14 02:55:46;;;;;;;31.63;10.30;;;-1.20;98.00;;;;;;5034426;28;20448;-66
2024/01/14 02:58:13;;;;;;;34.97;10.63;;;-1.20;98.00;;;;;;5052189;28;20452;-66
2024/01/14 03:00:41;;;;;;;31.90;8.80;;;-1.10;98.00;;;;;;5051799;28;20479;-66
2024/01/14 03:03:08;;;;;;;25.47;8.17;;;-1.10;98.00;;;;;;5051658;28;20458;-66
2024/01/14 03:05:35;;;;;;;27.10;8.37;;;-0.90;98.00;;;;;;5051630;28;20464;-66
2024/01/14 03:08:03;;;;;;;32.70;9.13;;;-0.90;98.00;;;;;;5051736;28;20455;-66
2024/01/14 03:10:30;;;;;;;30.97;8.60;;;-0.90;98.00;;;;;;5052147;28;21012;-65
2024/01/14 03:12:57;;;;;;;36.03;9.67;;;-1.10;98.00;;;;;;5051834;28;20514;-66
2024/01/14 03:15:25;;;;;;;21.90;8.23;;;-1.10;98.00;;;;;;5051596;28;20877;-66
2024/01/14 03:17:54;;;;;;;29.43;9.03;;;-1.00;98.00;;;;;;5051690;28;20472;-66
2024/01/14 03:20:22;;;;;;;30.07;9.30;;;-1.00;98.00;;;;;;5051516;28;20513;-66
2024/01/14 03:22:49;;;;;;;28.10;7.90;;;-0.90;98.00;;;;;;5051499;28;20452;-66
2024/01/14 03:25:16;;;;;;;32.53;10.00;;;-0.90;98.00;;;;;;5051548;28;20560;-66
2024/01/14 03:27:44;;;;;;;30.77;8.93;;;-0.80;98.00;;;;;;5051631;28;20451;-66
2024/01/14 03:30:12;;;;;;;36.63;10.03;;;-0.90;98.00;;;;;;5051478;28;20602;-66
2024/01/14 03:32:39;;;;;;;32.63;9.27;;;-0.90;98.00;;;;;;5051579;28;20468;-66
2024/01/14 03:35:08;;;;;;;27.80;9.00;;;-0.90;98.00;;;;;;5051496;28;20490;-66
2024/01/14 03:37:35;;;;;;;36.97;9.90;;;-0.90;98.00;;;;;;5051565;28;20451;-66
2024/01/14 03:40:03;;;;;;;34.37;9.97;;;-0.90;98.00;;;;;;5033871;28;20775;-66
2024/01/14 03:42:30;;;;;;;29.53;8.80;;;-1.00;98.00;;;;;;5033769;28;20580;-66
2024/01/14 03:44:57;;;;;;;33.03;9.70;;;-1.00;98.00;;;;;;5051585;28;20456;-66
2024/01/14 03:47:24;;;;;;;25.80;8.23;;;-0.90;98.00;;;;;;5051436;28;21015;-65
2024/01/14 03:49:53;;;;;;;30.10;8.30;;;-0.80;98.00;;;;;;5051315;28;20450;-66
2024/01/14 03:52:22;;;;;;;20.50;7.67;;;-0.80;98.00;;;;;;5034227;28;20448;-65
2024/01/14 03:54:50;;;;;;;32.83;8.43;;;-0.80;98.00;;;;;;5055274;28;21015;-65
2024/01/14 03:57:17;;;;;;;28.83;9.00;;;-0.80;98.00;;;;;;5055402;28;20452;-66
2024/01/14 03:59:44;;;;;;;32.53;10.63;;;-0.80;98.00;;;;;;5037603;28;20462;-66
2024/01/14 04:02:12;;;;;;;29.90;9.30;;;-0.80;98.00;;;;;;5053802;28;20510;-66
2024/01/14 04:04:40;;;;;;;30.83;9.20;;;-0.90;98.00;;;;;;5053637;28;20462;-66
2024/01/14 04:07:07;;;;;;;33.13;8.97;;;-0.90;98.00;;;;;;5036083;28;20473;-66
2024/01/14 04:09:35;;;;;;;32.27;9.30;;;-0.80;98.00;;;;;;5054777;28;20453;-66
2024/01/14 04:12:02;;;;;;;28.37;9.13;;;-0.90;98.00;;;;;;5055371;28;20459;-66
2024/01/14 04:14:30;;;;;;;28.13;9.40;;;-0.90;98.00;;;;;;5054825;28;20488;-65
2024/01/14 04:16:57;;;;;;;28.60;8.83;;;-0.90;98.00;;;;;;5055141;28;20452;-66
2024/01/14 04:19:24;;;;;;;28.63;9.27;;;-0.90;98.00;;;;;;5055010;28;20997;-66
2024/01/14 04:21:51;;;;;;;37.10;9.37;;;-1.00;98.00;;;;;;5055163;28;20835;-65
2024/01/14 04:24:18;;;;;;;27.97;9.17;;;-1.10;98.00;;;;;;5054944;28;21187;-66
2024/01/14 04:26:47;;;;;;;29.97;9.83;;;-1.00;98.00;;;;;;5054786;28;20443;-66
2024/01/14 04:29:14;;;;;;;32.05;8.15;;;-1.00;98.00;;;;;;5054833;28;20511;-66
2024/01/14 04:31:41;;;;;;;29.20;9.83;;;-1.00;98.00;;;;;;5054535;28;20220;-66
2024/01/14 04:34:08;;;;;;;37.23;9.33;;;-0.90;98.00;;;;;;5054964;28;20497;-66
2024/01/14 04:36:37;;;;;;;31.00;8.80;;;-0.90;98.00;;;;;;5054125;28;20955;-66
2024/01/14 04:39:04;;;;;;;37.67;8.70;;;-1.00;98.00;;;;;;5052534;28;20952;-65
2024/01/14 04:41:32;;;;;;;27.20;8.63;;;-0.90;98.00;;;;;;5054439;28;20574;-65
2024/01/14 04:44:01;;;;;;;33.33;8.10;;;-0.90;98.00;;;;;;5036650;28;20455;-65
2024/01/14 04:46:28;;;;;;;38.35;8.55;;;-0.90;98.00;;;;;;5054325;28;20506;-66
2024/01/14 04:48:55;;;;;;;24.15;7.68;;;-0.90;98.00;;;;;;5054564;28;20222;-66
2024/01/14 04:51:22;;;;;;;33.28;10.43;;;-1.10;98.00;;;;;;5054168;28;20204;-66
2024/01/14 04:53:50;;;;;;;31.60;8.67;;;-1.20;98.00;;;;;;5036714;28;20203;-66
2024/01/14 04:56:17;;;;;;;27.15;8.27;;;-1.20;98.00;;;;;;5036496;28;20453;-66
2024/01/14 04:58:45;;;;;;;24.80;8.47;;;-1.30;98.00;;;;;;5054073;28;20206;-68
2024/01/14 05:01:14;;;;;;;31.80;8.57;;;-1.30;98.00;;;;;;5035728;28;20529;-65
2024/01/14 05:03:42;;;;;;;20.23;9.02;;;-1.40;98.00;;;;;;5053307;28;20287;-66
2024/01/14 05:06:10;;;;;;;22.58;7.82;;;;;;;;;;5035457;28;20216;-68
2024/01/14 05:08:38;;;;;;;27.63;7.47;;;-1.40;98.00;;;;;;5054053;28;20207;-68
2024/01/14 05:11:05;;;;;;;24.88;8.23;;;-1.50;98.00;;;;;;5054069;28;20866;-68
2024/01/14 05:13:32;;;;;;;20.58;6.68;;;-1.50;98.00;;;;;;5053857;28;20203;-66
2024/01/14 05:15:59;;;;;;;21.57;7.23;;;-1.50;98.00;;;;;;5053521;28;20572;-66
2024/01/14 05:18:28;;;;;;;20.95;5.78;;;-1.40;98.00;;;;;;5053427;28;20456;-68
2024/01/14 05:20:55;;;;;;;15.60;5.93;;;-1.50;98.00;;;;;;5053705;28;20212;-68
2024/01/14 05:23:22;;;;;;;23.30;6.90;;;-1.50;98.00;;;;;;5053404;28;20223;-66
2024/01/14 05:25:49;;;;;;;15.10;5.22;;;-1.40;98.00;;;;;;5053657;28;20196;-66
2024/01/14 05:28:16;;;;;;;23.83;7.47;;;-1.50;98.00;;;;;;5053593;28;20204;-66
2024/01/14 05:30:43;;;;;;;18.27;5.80;;;-1.60;98.00;;;;;;5053569;28;20196;-66
2024/01/14 05:33:10;;;;;;;18.07;6.80;;;-1.70;98.00;;;;;;5053501;28;20208;-66
2024/01/14 05:35:43;;;;;;;22.98;6.03;;;-1.80;98.00;;;;;;5053432;28;20459;-65
2024/01/14 05:38:10;;;;;;;28.07;8.57;;;-1.90;98.00;;;;;;5053377;28;20207;-65
2024/01/14 05:40:37;;;;;;;23.70;7.80;;;-2.00;98.00;;;;;;5053540;28;20792;-66
2024/01/14 05:43:06;;;;;;;24.48;7.30;;;-2.00;98.00;;;;;;5053403;28;20225;-66
2024/01/14 05:45:33;;;;;;;24.92;8.32;;;-2.10;98.00;;;;;;5033008;28;20193;-66
2024/01/14 05:48:00;;;;;;;33.60;8.82;;;-2.30;98.00;;;;;;5033401;28;20722;-66
2024/01/14 05:50:27;;;;;;;38.28;9.48;;;-2.30;98.00;;;;;;5033104;28;20263;-66
2024/01/14 05:52:56;;;;;;;31.95;8.52;;;-2.20;98.00;;;;;;5033021;28;20204;-66
2024/01/14 05:55:23;;;;;;;25.77;7.10;;;-2.10;98.00;;;;;;5032719;28;20212;-66
2024/01/14 05:57:50;;;;;;;35.78;8.80;;;-2.00;98.00;;;;;;5033001;28;20244;-65
2024/01/14 06:00:22;;;;;;;29.48;8.07;;;-1.90;98.00;;;;;;5033073;28;20205;-66
2024/01/14 06:02:55;;;;;;;28.77;9.77;;;-2.00;98.00;;;;;;5033067;28;20256;-65
2024/01/14 06:05:22;;;;;;;22.33;7.95;;;-1.90;98.00;;;;;;5032997;28;20842;-66
2024/01/14 06:07:50;;;;;;;32.78;7.75;;;-2.00;98.00;;;;;;5033157;28;20277;-66
2024/01/14 06:10:18;;;;;;;29.77;9.10;;;-1.90;98.00;;;;;;5032903;28;20211;-66
2024/01/14 06:12:47;;;;;;;23.40;7.55;;;-1.90;98.00;;;;;;5033158;28;20455;-66
2024/01/14 06:15:14;;;;;;;25.70;7.70;;;-1.90;98.00;;;;;;5032628;28;20208;-66
2024/01/14 06:17:42;;;;;;;39.13;9.87;;;-1.90;98.00;;;;;;5032008;28;20192;-66
2024/01/14 06:20:10;;;;;;;29.13;9.30;;;-2.00;98.00;;;;;;5032791;28;20452;-66
2024/01/14 06:22:37;;;;;;;31.60;8.57;;;-2.00;98.00;;;;;;5015363;28;20500;-66
2024/01/14 06:25:05;;;;;;;31.85;9.20;;;-2.10;98.00;;;;;;5032676;28;20801;-66
2024/01/14 06:27:35;;;;;;;31.50;9.20;;;-2.10;98.00;;;;;;5032275;28;20263;-66
2024/01/14 06:30:03;;;;;;;32.30;9.30;;;-2.10;98.00;;;;;;5032761;28;20565;-67
2024/01/14 06:32:30;;;;;;;33.60;8.87;;;-2.00;98.00;;;;;;5015083;28;20540;-66
2024/01/14 06:34:58;;;;;;;36.33;10.30;;;-1.90;98.00;;;;;;5032168;28;20482;-67
2024/01/14 06:37:25;;;;;;;29.63;8.75;;;-2.00;98.00;;;;;;5032157;28;20463;-67
2024/01/14 06:39:52;;;;;;;36.22;10.50;;;-2.10;98.00;;;;;;5032144;28;20200;-67
2024/01/14 06:42:19;;;;;;;43.58;9.40;;;-2.10;98.00;;;;;;5032006;28;20220;-67
2024/01/14 06:44:49;;;;;;;44.47;10.05;;;-2.00;98.00;;;;;;5032007;28;20207;-67
2024/01/14 06:47:17;;;;;;;33.23;9.60;;;-2.10;98.00;;;;;;5014427;28;20219;-67
2024/01/14 06:49:44;;;;;;;35.47;8.98;;;-2.20;98.00;;;;;;5032307;28;20493;-66
2024/01/14 06:52:11;;;;;;;28.73;8.33;;;-2.20;98.00;;;;;;5031999;28;20228;-67
2024/01/14 06:54:39;;;;;;;31.55;9.25;;;-2.10;98.00;;;;;;5032009;28;20508;-67
2024/01/14 06:57:06;;;;;;;37.00;8.83;;;-2.10;98.00;;;;;;5031983;28;20239;-66
2024/01/14 06:59:33;;;;;;;32.88;8.93;;;-2.20;98.00;;;;;;5014374;28;20787;-66
2024/01/14 07:02:02;;;;;;;33.73;8.77;;;-2.30;98.00;;;;;;5031920;28;20299;-67
2024/01/14 07:04:29;;;;;;;27.23;8.70;;;-2.20;98.00;;;;;;5032029;28;20466;-67
2024/01/14 07:06:57;;;;;;;31.43;7.90;;;-2.20;98.00;;;;;;5032277;28;20550;-66
2024/01/14 07:09:24;;;;;;;29.58;8.95;;;-2.10;98.00;;;;;;5014839;28;20446;-66
2024/01/14 07:11:51;;;;;;;24.73;7.75;;;-2.00;98.00;;;;;;5032063;28;20208;-67
2024/01/14 07:14:18;;;;;;;20.80;7.22;;;-1.90;98.00;;;;;;5031914;28;20200;-66
2024/01/14 07:16:45;;;;;;;27.55;8.73;;;-1.80;98.00;;;;;;5032089;28;20686;-68
2024/01/14 07:19:14;;;;;;;29.02;8.35;;;-1.80;98.00;;;;;;5014456;28;20582;-66
2024/01/14 07:21:41;;;;;;;21.50;7.45;;;-1.90;98.00;;;;;;5031876;28;20209;-67
2024/01/14 07:24:08;;;;;;;26.42;7.90;;;-1.80;98.00;;;;;;5031797;28;20253;-67
2024/01/14 07:26:35;;;;;;;31.35;9.13;;;-1.80;98.00;;;;;;5031986;28;20658;-67
2024/01/14 07:29:02;;;;;;;33.77;9.27;;;-1.80;98.00;;;;;;5031720;28;20205;-68
2024/01/14 07:31:30;;;;;;;29.83;8.63;;;-1.80;98.00;;;;;;5031856;28;20463;-66
2024/01/14 07:33:58;;;;;;;28.80;6.57;;;-1.80;98.00;;;;;;5032093;28;20207;-66
2024/01/14 07:36:27;;;;;;;30.77;9.13;;;-1.70;98.00;;;;;;5031847;28;20212;-67
2024/01/14 07:38:55;;;;;;;27.83;7.95;;;-1.60;98.00;;;;;;5031682;28;20451;-67
2024/01/14 07:41:22;;;;;;;37.57;8.40;;;-1.50;98.00;;;;;;5031684;28;20202;-67
2024/01/14 07:43:49;;;;;;;30.23;8.33;;;-1.60;98.00;;;;;;5014453;28;20881;-68
2024/01/14 07:46:20;;;;;;;25.97;8.57;;;-1.50;98.00;;;;;;5031863;28;20454;-66
2024/01/14 07:48:47;;;;;;;27.10;7.93;;;-1.60;98.00;;;;;;5032010;28;20452;-66
2024/01/14 07:51:14;;;;;;;40.72;8.88;;;-1.60;98.00;;;;;;5031758;28;20484;-66
2024/01/14 07:53:43;;;;;;;33.78;8.60;;;-1.60;98.00;;;;;;5031836;28;20694;-65
2024/01/14 07:56:10;;;;;;;31.90;7.47;;;-1.60;98.00;;;;;;5031675;28;20678;-64
2024/01/14 07:58:37;;;;;;;32.90;8.70;;;-1.60;98.00;;;;;;5031804;28;20201;-65
2024/01/14 08:01:06;;;;;;;29.63;7.77;;;-1.60;98.00;;;;;;5031742;28;20492;-65
2024/01/14 08:03:33;;;;;;;22.90;7.50;;;-1.60;98.00;;;;;;5031649;28;20850;-66
2024/01/14 08:06:00;;;;;;;27.92;7.65;;;-1.70;98.00;;;;;;5031771;28;20485;-66
2024/01/14 08:08:27;;;;;;;25.65;6.65;;;-1.50;98.00;;;;;;5031663;28;20201;-65
2024/01/14 08:10:56;;;;;;;38.10;8.20;;;-1.40;98.00;;;;;;5031911;28;20205;-67
2024/01/14 08:13:23;;;;;;;31.27;9.73;;;-1.30;98.00;;;;;;5031999;28;20457;-66
2024/01/14 08:15:50;;;;;;;23.50;7.70;;;-1.20;98.00;;;;;;5031473;28;21019;-67
2024/01/14 08:18:19;;;;;;;26.50;8.10;;;-1.30;98.00;;;;;;5031424;28;20460;-66
2024/01/14 08:20:47;;;;;;;26.33;8.43;;;-1.30;98.00;;;;;;5031097;28;20529;-68
2024/01/14 08:23:15;;;;;;;36.50;8.13;;;-1.30;98.00;;;;;;5031063;28;20488;-67
2024/01/14 08:25:42;;;;;;;27.75;9.45;;;-1.20;98.00;;;;;;5031352;28;20451;-67
2024/01/14 08:28:10;;;;;;;28.93;8.17;;;-1.30;98.00;;;;;;5013786;28;20655;-67
2024/01/14 08:30:38;;;;;;;24.35;8.48;;;-1.30;98.00;;;;;;5031321;28;20514;-66
2024/01/14 08:33:05;;;;;;;28.50;8.47;;;-1.10;98.00;;;;;;4997589;28;20664;-65
2024/01/14 08:35:35;;;;;;;26.17;7.90;;;-1.00;98.00;;;;;;5031104;28;20458;-66
2024/01/14 08:38:04;;;;;;;33.13;9.37;;;-1.10;98.00;;;;;;5030874;28;20869;-68
2024/01/14 08:40:32;;;;;;;26.67;8.68;;;-1.30;98.00;;;;;;5033481;28;20451;-66
2024/01/14 08:42:59;;;;;;;28.87;8.60;;;-1.50;98.00;;;;;;5034580;28;20229;-67
2024/01/14 08:45:28;;;;;;;37.33;9.30;;;-1.50;98.00;;;;;;5034216;28;20839;-67
2024/01/14 08:47:55;;;;;;;31.67;8.47;;;-1.40;98.00;;;;;;5034807;28;20714;-66
2024/01/14 08:50:22;;;;;;;33.33;9.23;;;-1.40;98.00;;;;;;5034650;28;20455;-67
2024/01/14 08:52:49;;;;;;;31.00;8.73;;;-1.60;98.00;;;;;;5034581;28;20249;-66
2024/01/14 08:55:16;;;;;;;24.98;7.60;;;-1.60;98.00;;;;;;5016831;28;20446;-64
2024/01/14 08:57:43;;;;;;;29.47;9.07;;;-1.50;98.00;;;;;;5034610;28;20677;-66
2024/01/14 09:00:11;;;;;;;34.57;9.03;;;-1.40;98.00;;;;;;5016575;28;20538;-67
2024/01/14 09:02:40;;;;;;;31.17;8.90;;;-1.60;98.00;;;;;;5034411;28;20955;-68
2024/01/14 09:05:07;;;;;;;35.57;8.80;;;-1.40;98.00;;;;;;5034303;28;20477;-68
2024/01/14 09:07:34;;;;;;;30.17;9.45;;;-1.70;98.00;;;;;;5016638;28;20450;-66
2024/01/14 09:10:02;;;;;;;32.30;9.40;;;-1.80;98.00;;;;;;5034189;28;20200;-65
2024/01/14 09:12:29;;;;;;;27.38;9.82;;;-1.80;98.00;;;;;;5034187;28;20616;-67
2024/01/14 09:14:56;;;;;;;35.85;8.95;;;-1.70;98.00;;;;;;5016382;28;20225;-66
2024/01/14 09:17:24;;;;;;;40.30;10.57;;;-1.70;98.00;;;;;;5035661;28;20217;-67
2024/01/14 09:19:53;;;;;;;29.23;9.23;;;-1.60;98.00;;;;;;5053879;28;20430;-66
2024/01/14 09:22:20;;;;;;;32.93;9.67;;;-1.60;98.00;;;;;;5053806;28;20494;-63
2024/01/14 09:24:47;;;;;;;28.87;9.60;;;-1.50;98.00;;;;;;5053870;28;20468;-64
2024/01/14 09:27:14;;;;;;;39.92;11.77;;;-1.40;98.00;;;;;;5053864;28;20450;-64
2024/01/14 09:29:44;;;;;;;29.65;9.55;;;-1.50;98.00;;;;;;5037964;28;20721;-65
2024/01/14 09:32:11;;;;;;;34.57;9.87;;;-1.40;98.00;;;;;;5239277;22;20231;-64
2024/01/14 09:34:39;;;;;;;35.93;9.90;;;-1.30;98.00;;;;;;5072636;28;20454;-65
2024/01/14 09:37:08;;;;;;;33.55;9.45;;;-1.30;98.00;;;;;;5072635;28;20453;-64
2024/01/14 09:39:35;;;;;;;36.28;8.57;;;-1.60;98.00;;;;;;5073030;28;20206;-64
2024/01/14 09:42:08;;;;;;;34.87;9.87;;;-1.60;98.00;;;;;;5038833;28;20726;-65
2024/01/14 09:44:35;;;;;;;33.10;9.90;;;-1.40;98.00;;;;;;5072745;28;20481;-65
2024/01/14 09:47:03;;;;;;;40.90;10.57;;;-1.30;98.00;;;;;;5038226;28;20473;-65
2024/01/14 09:49:33;;;;;;;30.77;9.80;;;-1.30;98.00;;;;;;5072435;28;20482;-66
2024/01/14 09:52:01;;;;;;;31.90;9.17;;;-1.20;98.00;;;;;;5072110;28;20449;-64
2024/01/14 09:54:31;;;;;;;35.78;10.75;;;-1.10;98.00;;;;;;5072575;28;20454;-66
2024/01/14 09:57:05;;;;;;;32.97;9.67;;;-1.00;98.00;;;;;;5072875;28;20216;-64
2024/01/14 09:59:35;;;;;;;27.90;8.70;;;-1.00;98.00;;;;;;5072792;28;20455;-65
2024/01/14 10:02:05;;;;;;;26.23;9.10;;;-0.90;98.00;;;;;;5072293;28;20936;-65
2024/01/14 10:04:32;;;;;;;27.63;8.80;;;-1.00;98.00;;;;;;5072561;28;20694;-65
2024/01/14 10:07:00;;;;;;;32.92;11.13;;;-1.00;98.00;;;;;;5072428;28;20458;-64
2024/01/14 10:09:27;;;;;;;28.23;9.53;;;-1.00;98.00;;;;;;5072203;28;20208;-64
2024/01/14 10:11:56;;;;;;;38.33;10.47;;;-1.00;98.00;;;;;;5072122;28;20449;-64
2024/01/14 10:14:26;;;;;;;29.23;8.57;;;-0.90;98.00;;;;;;5072105;28;20450;-64
2024/01/14 10:16:55;;;;;;;30.33;8.93;;;-0.80;98.00;;;;;;5072289;28;20240;-64
2024/01/14 10:19:22;;;;;;;28.63;9.70;;;-0.80;98.00;;;;;;5072120;28;20461;-64
2024/01/14 10:21:52;;;;;;;27.40;10.97;;;-0.80;98.00;;;;;;5072073;28;20813;-64
2024/01/14 10:24:19;;;;;;;30.03;10.13;;;-0.70;98.00;;;;;;5071587;28;20486;-65
2024/01/14 10:26:46;;;;;;;31.80;10.40;;;-0.60;98.00;;;;;;5071795;28;21140;-65
2024/01/14 10:29:15;;;;;;;32.83;9.23;;;-0.60;98.00;;;;;;5071951;28;20456;-65
2024/01/14 10:31:44;;;;;;;33.63;9.83;;;-0.50;98.00;;;;;;5071613;28;20457;-64
2024/01/14 10:34:11;;;;;;;32.13;9.00;;;-0.60;98.00;;;;;;5071482;28;20462;-64
2024/01/14 10:36:38;;;;;;;40.97;9.77;;;-0.50;98.00;;;;;;5071628;28;20462;-67
2024/01/14 10:39:10;;;;;;;32.23;9.20;;;-0.30;98.00;;;;;;5071688;28;20810;-66
2024/01/14 10:41:37;;;;;;;31.50;9.80;;;-0.20;98.00;;;;;;5071873;28;20561;-65
2024/01/14 10:44:04;;;;;;;30.07;9.87;;;-0.10;98.00;;;;;;5071650;28;20491;-65
2024/01/14 10:46:35;;;;;;;32.67;10.57;;;-0.20;98.00;;;;;;5071599;28;20945;-66
2024/01/14 10:49:07;;;;;;;31.83;9.63;;;-0.20;98.00;;;;;;5071426;28;20546;-66
2024/01/14 10:51:40;;;;;;;28.73;10.40;;;-0.30;98.00;;;;;;5071447;28;20456;-66
2024/01/14 10:54:19;;;;;;;36.87;11.30;;;-0.10;98.00;;;;;;5070462;28;20657;-65
2024/01/14 10:56:52;;;;;;;33.90;9.63;;;0.00;98.00;;;;;;5071372;28;20458;-65
2024/01/14 10:59:23;;;;;;;35.00;11.10;;;0.20;98.00;;;;;;5071556;28;20553;-66
2024/01/14 11:01:55;;;;;;;37.20;11.20;;;0.40;98.00;;;;;;5071052;28;20495;-65
2024/01/14 11:04:23;;;;;;;36.13;11.30;;;0.50;98.00;;;;;;5070199;28;20489;-64
2024/01/14 11:06:55;;;;;;;36.83;11.17;;;0.50;98.00;;;;;;5071532;28;20456;-64
2024/01/14 11:09:22;;;;;;;45.83;12.87;;;0.60;98.00;;;;;;5071392;28;20501;-65
2024/01/14 11:11:58;;;;;;;40.73;12.30;;;0.70;98.00;;;;;;5071124;28;20451;-65
2024/01/14 11:14:30;;;;;;;32.70;10.60;;;0.80;98.00;;;;;;5070130;28;20576;-65
2024/01/14 11:17:07;;;;;;;34.00;10.87;;;0.60;98.00;;;;;;5070905;28;20451;-65
2024/01/14 11:19:38;;;;;;;40.23;10.90;;;0.70;98.00;;;;;;5072193;28;20455;-66
2024/01/14 11:22:24;;;;;;;33.03;11.23;;;0.80;98.00;;;;;;5072022;28;20521;-65
2024/01/14 11:24:51;;;;;;;36.07;10.43;;;0.90;98.00;;;;;;5072099;28;20574;-65
2024/01/14 11:27:19;;;;;;;36.13;10.80;;;0.90;98.00;;;;;;5071840;28;20463;-64
2024/01/14 11:29:46;;;;;;;28.53;10.50;;;1.10;98.00;;;;;;5072031;28;20471;-65
2024/01/14 11:32:16;;;;;;;29.23;10.60;;;1.20;98.00;;;;;;5070526;28;20459;-64
2024/01/14 11:34:54;;;;;;;42.17;11.40;;;1.30;98.00;;;;;;5072024;28;20452;-65
2024/01/14 11:37:51;;;;;;;36.50;11.27;;;1.30;98.00;;;;;;5071782;28;20464;-64
2024/01/14 11:40:29;;;;;;;35.90;10.90;;;1.30;98.00;;;;;;4974022;28;20452;-65
2024/01/14 11:43:02;;;;;;;33.90;11.00;;;1.40;98.00;;;;;;5059146;28;20897;-66
2024/01/14 11:45:37;;;;;;;35.77;12.00;;;1.60;98.00;;;;;;5071361;28;20460;-65
2024/01/14 11:48:08;;;;;;;37.80;11.17;;;1.50;98.00;;;;;;5070760;28;20456;-65
2024/01/14 11:50:37;;;;;;;34.73;10.30;;;1.50;98.00;;;;;;5070285;28;20460;-64
2024/01/14 11:53:07;;;;;;;38.17;11.17;;;1.60;98.00;;;;;;5071743;28;20449;-64
2024/01/14 11:55:34;;;;;;;33.53;9.57;;;1.80;98.00;;;;;;5071585;28;20460;-64
2024/01/14 11:58:17;;;;;;;39.67;10.77;;;2.10;98.00;;;;;;5070584;28;20458;-64
2024/01/14 12:00:46;;;;;;;30.43;9.97;;;2.20;98.00;;;;;;5072078;28;20453;-64
2024/01/14 12:03:25;;;;;;;35.47;10.73;;;2.30;98.00;;;;;;5071306;28;20548;-64
2024/01/14 12:05:54;;;;;;;30.20;10.20;;;2.50;98.00;;;;;;5071435;28;20992;-64
2024/01/14 12:08:21;;;;;;;32.50;10.27;;;2.70;98.00;;;;;;5071292;28;20493;-65
2024/01/14 12:10:49;;;;;;;40.47;11.40;;;2.70;98.00;;;;;;5071560;28;20487;-64
2024/01/14 12:13:16;;;;;;;36.10;10.70;;;2.70;98.00;;;;;;5071499;28;20456;-64
2024/01/14 12:15:43;;;;;;;27.47;9.33;;;2.70;98.00;;;;;;5074253;28;20449;-65
2024/01/14 12:18:10;;;;;;;34.33;9.73;;;2.80;98.00;;;;;;5076527;28;20444;-64
2024/01/14 12:20:39;;;;;;;32.53;9.50;;;2.80;98.00;;;;;;5074956;28;20475;-63
2024/01/14 12:23:06;;;;;;;25.80;8.27;;;2.80;98.00;;;;;;5057235;28;20449;-63
2024/01/14 12:25:34;;;;;;;33.80;10.37;;;2.90;98.00;;;;;;5074874;28;20488;-64
2024/01/14 12:28:01;;;;;;;41.53;11.77;;;3.10;98.00;;;;;;5074917;28;20822;-64
2024/01/14 12:30:34;;;;;;;28.60;10.17;;;3.20;98.00;;;;;;5074727;28;20448;-64
2024/01/14 12:33:05;;;;;;;39.43;11.30;;;3.40;98.00;;;;;;5074757;28;20459;-69
2024/01/14 12:35:36;;;;;;;34.03;10.90;;;3.40;98.00;;;;;;5057263;28;20825;-69
2024/01/14 12:38:06;;;;;;;43.77;12.97;;;3.40;98.00;;;;;;5074901;28;20453;-66
2024/01/14 12:40:34;;;;;;;35.93;11.33;;;3.40;98.00;;;;;;5074554;28;20452;-66